createdAt,value
2022-10-15T00:01:30.665Z,20.05
2022-10-15T00:03:57.606Z,18.15
2022-10-15T00:06:24.469Z,21.02
2022-10-15T00:08:51.298Z,18.80
2022-10-15T00:11:20.970Z,24.63
2022-10-15T00:13:48.258Z,23.63
2022-10-15T00:16:18.010Z,21.25
2022-10-15T00:18:44.853Z,21.90
2022-10-15T00:21:15.071Z,26.88
2022-10-15T00:23:42.430Z,22.30
2022-10-15T00:26:11.966Z,17.23
2022-10-15T00:28:39.243Z,19.40
2022-10-15T00:31:09.534Z,26.50
2022-10-15T00:33:36.893Z,18.63
2022-10-15T00:36:16.858Z,20.42
2022-10-15T00:38:43.811Z,22.45
2022-10-15T00:41:16.844Z,17.35
2022-10-15T00:43:49.406Z,19.88
2022-10-15T00:46:24.666Z,24.05
2022-10-15T00:49:12.705Z,22.98
2022-10-15T00:51:47.856Z,19.10
2022-10-15T00:54:15.761Z,19.15
2022-10-15T00:56:45.149Z,18.83
2022-10-15T00:59:13.637Z,18.40
2022-10-15T01:01:41.444Z,15.45
2022-10-15T01:04:09.000Z,14.55
2022-10-15T01:06:37.478Z,15.52
2022-10-15T01:09:05.098Z,17.98
2022-10-15T01:11:38.990Z,17.25
2022-10-15T01:14:33.858Z,16.63
2022-10-15T01:17:20.128Z,20.02
2022-10-15T01:20:00.630Z,15.88
2022-10-15T01:22:36.540Z,21.73
2022-10-15T01:25:09.577Z,15.93
2022-10-15T01:27:52.349Z,18.98
2022-10-15T01:30:39.192Z,17.38
2022-10-15T01:33:29.578Z,18.10
2022-10-15T01:36:29.742Z,17.27
2022-10-15T01:39:15.145Z,22.17
2022-10-15T01:41:47.300Z,24.63
2022-10-15T01:44:44.607Z,18.27
2022-10-15T01:47:46.452Z,20.42
2022-10-15T01:50:17.335Z,17.75
2022-10-15T01:52:46.031Z,19.42
2022-10-15T01:55:16.089Z,17.65
2022-10-15T01:57:44.694Z,19.00
2022-10-15T02:00:12.106Z,18.38
2022-10-15T02:02:38.882Z,18.15
2022-10-15T02:05:09.467Z,17.27
2022-10-15T02:07:44.086Z,16.75
2022-10-15T02:10:16.972Z,16.88
2022-10-15T02:13:11.211Z,15.60
2022-10-15T02:16:10.019Z,20.42
2022-10-15T02:19:10.217Z,21.50
2022-10-15T02:21:52.653Z,19.05
2022-10-15T02:24:25.435Z,15.30
2022-10-15T02:26:55.026Z,20.23
2022-10-15T02:29:27.163Z,24.17
2022-10-15T02:31:57.451Z,24.33
2022-10-15T02:34:29.887Z,24.65
2022-10-15T02:36:59.038Z,20.45
2022-10-15T02:39:25.929Z,19.17
2022-10-15T02:41:54.710Z,19.88
2022-10-15T02:44:21.785Z,17.05
2022-10-15T02:46:49.080Z,22.08
2022-10-15T02:49:16.009Z,16.63
2022-10-15T02:51:42.820Z,18.73
2022-10-15T02:54:10.151Z,16.48
2022-10-15T02:56:39.328Z,23.52
2022-10-15T02:59:07.261Z,19.30
2022-10-15T03:01:34.971Z,21.20
2022-10-15T03:04:02.576Z,20.75
2022-10-15T03:06:29.636Z,17.80
2022-10-15T03:08:56.415Z,19.90
2022-10-15T03:11:23.186Z,20.02
2022-10-15T03:13:50.357Z,18.02
2022-10-15T03:16:17.194Z,21.00
2022-10-15T03:18:44.065Z,20.25
2022-10-15T03:21:10.874Z,18.05
2022-10-15T03:23:37.631Z,20.33
2022-10-15T03:26:04.815Z,16.98
2022-10-15T03:28:31.694Z,19.05
2022-10-15T03:30:59.846Z,17.83
2022-10-15T03:33:26.952Z,20.38
2022-10-15T03:35:54.361Z,17.08
2022-10-15T03:38:21.247Z,24.25
2022-10-15T03:40:48.029Z,21.17
2022-10-15T03:43:14.807Z,26.25
2022-10-15T03:45:41.978Z,17.75
2022-10-15T03:48:09.189Z,20.30
2022-10-15T03:50:35.977Z,16.98
2022-10-15T03:53:04.877Z,19.02
2022-10-15T03:55:32.017Z,21.35
2022-10-15T03:57:58.946Z,40.30
2022-10-15T04:00:26.266Z,23.67
2022-10-15T04:02:53.015Z,20.88
2022-10-15T04:05:19.846Z,22.25
2022-10-15T04:07:46.602Z,64.82
2022-10-15T04:10:13.393Z,35.75
2022-10-15T04:12:40.146Z,25.63
2022-10-15T04:15:07.802Z,21.77
2022-10-15T04:17:34.982Z,35.13
2022-10-15T04:20:02.151Z,34.70
2022-10-15T04:22:29.290Z,24.77
2022-10-15T04:24:56.440Z,17.65
2022-10-15T04:27:23.199Z,18.42
2022-10-15T04:29:50.002Z,18.48
2022-10-15T04:32:17.036Z,21.63
2022-10-15T04:34:45.729Z,27.70
2022-10-15T04:37:12.982Z,20.98
2022-10-15T04:39:40.109Z,18.45
2022-10-15T04:42:06.928Z,20.38
2022-10-15T04:44:33.822Z,19.63
2022-10-15T04:47:02.583Z,19.95
2022-10-15T04:49:29.357Z,17.67
2022-10-15T04:51:56.106Z,16.35
2022-10-15T04:54:22.937Z,20.08
2022-10-15T04:56:49.678Z,31.90
2022-10-15T04:59:16.826Z,21.08
2022-10-15T05:01:43.661Z,18.67
2022-10-15T05:04:12.307Z,18.30
2022-10-15T05:06:39.225Z,16.55
2022-10-15T05:09:05.984Z,16.10
2022-10-15T05:11:36.677Z,16.13
2022-10-15T05:14:03.815Z,15.52
2022-10-15T05:16:31.285Z,15.27
2022-10-15T05:19:00.418Z,18.10
2022-10-15T05:21:28.163Z,17.17
2022-10-15T05:23:55.663Z,16.45
2022-10-15T05:26:24.684Z,21.08
2022-10-15T05:28:52.309Z,19.02
2022-10-15T05:31:22.685Z,21.77
2022-10-15T05:33:54.073Z,20.27
2022-10-15T05:36:29.148Z,29.35
2022-10-15T05:38:59.241Z,28.55
2022-10-15T05:41:27.251Z,30.33
2022-10-15T05:43:55.970Z,32.15
2022-10-15T05:46:23.487Z,29.90
2022-10-15T05:48:51.612Z,33.65
2022-10-15T05:51:19.176Z,29.75
2022-10-15T05:53:46.499Z,29.35
2022-10-15T05:56:15.051Z,50.17
2022-10-15T05:58:42.000Z,27.73
2022-10-15T06:01:10.918Z,33.85
2022-10-15T06:03:38.891Z,37.45
2022-10-15T06:06:13.018Z,31.80
2022-10-15T06:08:40.277Z,31.45
2022-10-15T06:11:09.399Z,37.80
2022-10-15T06:13:41.500Z,32.85
2022-10-15T06:16:09.197Z,34.92
2022-10-15T06:18:37.070Z,30.63
2022-10-15T06:21:04.377Z,29.33
2022-10-15T06:23:31.379Z,34.22
2022-10-15T06:26:05.994Z,25.17
2022-10-15T06:28:33.857Z,23.52
2022-10-15T06:31:01.681Z,23.02
2022-10-15T06:33:29.238Z,21.98
2022-10-15T06:36:00.283Z,23.65
2022-10-15T06:38:27.805Z,31.92
2022-10-15T06:40:54.719Z,30.52
2022-10-15T06:43:22.133Z,22.58
2022-10-15T06:45:49.402Z,22.33
2022-10-15T06:48:16.301Z,27.30
2022-10-15T06:50:43.792Z,28.50
2022-10-15T06:53:10.794Z,20.77
2022-10-15T06:55:39.507Z,26.60
2022-10-15T06:58:06.925Z,18.75
2022-10-15T07:03:06.077Z,21.40
2022-10-15T07:05:33.960Z,21.55
2022-10-15T07:08:01.208Z,19.85
2022-10-15T07:10:29.596Z,23.52
2022-10-15T07:12:58.904Z,26.05
2022-10-15T07:15:25.798Z,25.55
2022-10-15T07:17:57.052Z,32.90
2022-10-15T07:20:24.434Z,26.80
2022-10-15T07:22:55.864Z,28.25
2022-10-15T07:25:23.220Z,25.58
2022-10-15T07:27:50.139Z,30.65
2022-10-15T07:30:17.242Z,25.15
2022-10-15T07:32:46.497Z,21.60
2022-10-15T07:35:14.434Z,22.17
2022-10-15T07:37:41.505Z,19.70
2022-10-15T07:40:08.867Z,22.15
2022-10-15T07:42:35.838Z,24.65
2022-10-15T07:45:03.438Z,28.08
2022-10-15T07:47:30.406Z,24.83
2022-10-15T07:49:57.397Z,24.58
2022-10-15T07:52:25.327Z,28.42
2022-10-15T07:54:52.957Z,28.13
2022-10-15T07:57:19.822Z,28.60
2022-10-15T07:59:46.688Z,32.03
2022-10-15T08:02:17.644Z,31.13
2022-10-15T08:04:44.603Z,31.52
2022-10-15T08:07:11.968Z,29.88
2022-10-15T08:09:39.279Z,25.65
2022-10-15T08:12:07.098Z,32.97
2022-10-15T08:14:35.274Z,27.25
2022-10-15T08:17:03.607Z,23.50
2022-10-15T08:19:31.820Z,33.47
2022-10-15T08:21:58.895Z,28.52
2022-10-15T08:24:27.379Z,30.33
2022-10-15T08:26:56.783Z,26.35
2022-10-15T08:29:26.358Z,17.38
2022-10-15T08:31:56.322Z,22.38
2022-10-15T08:34:33.631Z,21.48
2022-10-15T08:37:02.845Z,20.00
2022-10-15T08:39:29.761Z,17.38
2022-10-15T08:42:06.458Z,19.65
2022-10-15T08:44:46.043Z,17.52
2022-10-15T08:47:31.565Z,19.05
2022-10-15T08:50:04.824Z,16.92
2022-10-15T08:52:47.138Z,22.02
2022-10-15T08:55:16.624Z,23.58
2022-10-15T08:57:53.296Z,17.60
2022-10-15T09:00:24.147Z,18.10
2022-10-15T09:03:05.053Z,21.70
2022-10-15T09:05:43.297Z,19.27
2022-10-15T09:08:31.241Z,14.77
2022-10-15T09:11:04.498Z,14.68
2022-10-15T09:16:19.311Z,18.15
2022-10-15T09:18:52.456Z,18.60
2022-10-15T09:21:24.237Z,16.33
2022-10-15T09:23:52.304Z,14.88
2022-10-15T09:26:32.519Z,16.90
2022-10-15T09:29:41.885Z,12.07
2022-10-15T09:32:31.466Z,14.73
2022-10-15T09:35:15.682Z,13.80
2022-10-15T09:38:23.762Z,14.82
2022-10-15T09:41:16.545Z,12.98
2022-10-15T09:43:48.460Z,13.05
2022-10-15T09:46:15.422Z,12.05
2022-10-15T09:49:03.365Z,11.07
2022-10-15T09:51:44.230Z,11.40
2022-10-15T09:54:25.156Z,11.73
2022-10-15T09:56:55.563Z,10.82
2022-10-15T09:59:23.965Z,11.45
2022-10-15T10:02:03.144Z,10.75
2022-10-15T10:04:32.292Z,11.95
2022-10-15T10:07:02.436Z,23.80
2022-10-15T10:09:36.409Z,17.73
2022-10-15T10:12:17.898Z,9.65
2022-10-15T10:15:08.676Z,11.02
2022-10-15T10:17:35.908Z,12.32
2022-10-15T10:20:08.923Z,12.35
2022-10-15T10:22:53.572Z,10.50
2022-10-15T10:25:29.496Z,7.60
2022-10-15T10:28:02.727Z,10.82
2022-10-15T10:30:38.305Z,8.80
2022-10-15T10:33:06.264Z,9.55
2022-10-15T10:35:50.624Z,11.07
2022-10-15T10:38:23.113Z,10.00
2022-10-15T10:41:07.712Z,9.32
2022-10-15T10:43:39.225Z,10.00
2022-10-15T10:46:19.727Z,11.45
2022-10-15T10:48:49.048Z,7.28
2022-10-15T10:51:22.837Z,12.23
2022-10-15T10:53:59.366Z,9.23
2022-10-15T10:56:37.712Z,10.65
2022-10-15T10:59:20.765Z,11.73
2022-10-15T11:01:48.077Z,8.88
2022-10-15T11:04:24.805Z,9.13
2022-10-15T11:07:00.274Z,8.93
2022-10-15T11:09:44.549Z,10.75
2022-10-15T11:13:04.981Z,8.98
2022-10-15T11:15:43.385Z,11.07
2022-10-15T11:18:47.882Z,9.05
2022-10-15T11:21:37.646Z,11.52
2022-10-15T11:24:23.857Z,8.93
2022-10-15T11:27:10.063Z,13.60
2022-10-15T11:29:50.238Z,11.68
2022-10-15T11:32:25.665Z,10.63
2022-10-15T11:35:16.927Z,10.52
2022-10-15T11:37:59.864Z,9.43
2022-10-15T11:40:46.884Z,13.93
2022-10-15T11:43:52.989Z,12.73
2022-10-15T11:46:44.184Z,11.55
2022-10-15T11:49:21.742Z,15.05
2022-10-15T11:52:17.456Z,11.68
2022-10-15T11:54:55.722Z,11.63
2022-10-15T11:57:25.421Z,13.05
2022-10-15T12:00:01.647Z,11.07
2022-10-15T12:02:37.449Z,18.85
2022-10-15T12:05:19.983Z,15.75
2022-10-15T12:07:50.109Z,14.00
2022-10-15T12:10:35.946Z,17.25
2022-10-15T12:13:17.894Z,12.55
2022-10-15T12:16:00.153Z,12.95
2022-10-15T12:18:43.321Z,16.20
2022-10-15T12:21:40.928Z,14.30
2022-10-15T12:24:40.882Z,13.07
2022-10-15T12:27:19.602Z,14.57
2022-10-15T12:30:13.509Z,13.55
2022-10-15T12:32:43.219Z,12.02
2022-10-15T12:35:16.524Z,15.43
2022-10-15T12:37:46.703Z,14.95
2022-10-15T12:40:22.537Z,11.88
2022-10-15T12:42:59.378Z,11.30
2022-10-15T12:45:40.441Z,16.73
2022-10-15T12:48:16.564Z,10.68
2022-10-15T12:50:43.631Z,11.10
2022-10-15T12:53:34.510Z,14.95
2022-10-15T12:56:10.776Z,10.07
2022-10-15T12:58:41.694Z,10.48
2022-10-15T13:01:15.145Z,9.13
2022-10-15T13:03:51.455Z,11.57
2022-10-15T13:06:21.507Z,10.38
2022-10-15T13:08:56.778Z,10.95
2022-10-15T13:11:30.000Z,10.65
2022-10-15T13:14:09.833Z,11.63
2022-10-15T13:16:37.002Z,15.05
2022-10-15T13:19:05.012Z,11.70
2022-10-15T13:21:50.606Z,10.50
2022-10-15T13:24:23.368Z,13.38
2022-10-15T13:26:51.526Z,10.75
2022-10-15T13:29:24.088Z,12.50
2022-10-15T13:31:53.384Z,11.52
2022-10-15T13:34:28.473Z,11.57
2022-10-15T13:36:59.970Z,12.32
2022-10-15T13:39:36.352Z,9.80
2022-10-15T13:42:15.101Z,11.95
2022-10-15T13:44:42.494Z,13.13
2022-10-15T13:47:36.371Z,14.45
2022-10-15T13:50:22.115Z,12.30
2022-10-15T13:52:52.700Z,13.80
2022-10-15T13:55:25.123Z,12.93
2022-10-15T13:57:59.440Z,12.43
2022-10-15T14:00:29.985Z,12.95
2022-10-15T14:03:17.793Z,12.05
2022-10-15T14:05:46.613Z,13.25
2022-10-15T14:08:20.821Z,14.45
2022-10-15T14:10:49.677Z,17.45
2022-10-15T14:13:16.957Z,19.73
2022-10-15T14:15:49.237Z,16.15
2022-10-15T14:18:27.489Z,15.88
2022-10-15T14:20:55.186Z,16.10
2022-10-15T14:23:27.422Z,16.20
2022-10-15T14:25:57.203Z,17.92
2022-10-15T14:28:25.182Z,15.90
2022-10-15T14:30:52.982Z,15.45
2022-10-15T14:33:38.319Z,14.23
2022-10-15T14:36:14.135Z,13.75
2022-10-15T14:38:42.282Z,15.75
2022-10-15T14:41:28.349Z,14.75
2022-10-15T14:44:18.478Z,14.77
2022-10-15T14:46:49.359Z,17.33
2022-10-15T14:49:27.073Z,12.10
2022-10-15T14:52:07.634Z,13.60
2022-10-15T14:54:42.840Z,13.10
2022-10-15T14:57:27.045Z,17.67
2022-10-15T14:59:56.087Z,13.10
2022-10-15T15:02:26.450Z,14.57
2022-10-15T15:05:12.497Z,19.25
2022-10-15T15:07:40.305Z,15.52
2022-10-15T15:10:08.816Z,18.48
2022-10-15T15:12:38.202Z,19.77
2022-10-15T15:15:14.622Z,17.20
2022-10-15T15:17:41.658Z,19.60
2022-10-15T15:20:10.533Z,21.38
2022-10-15T15:22:39.174Z,17.77
2022-10-15T15:25:21.659Z,17.52
2022-10-15T15:27:48.489Z,19.42
2022-10-15T15:30:20.577Z,18.40
2022-10-15T15:32:48.257Z,20.17
2022-10-15T15:35:44.959Z,19.33
2022-10-15T15:38:12.227Z,20.15
2022-10-15T15:40:39.639Z,19.23
2022-10-15T15:43:06.428Z,20.58
2022-10-15T15:45:33.355Z,22.70
2022-10-15T15:48:03.491Z,19.40
2022-10-15T15:50:30.695Z,23.80
2022-10-15T15:52:57.470Z,23.40
2022-10-15T15:55:24.815Z,21.65
2022-10-15T15:57:51.711Z,31.52
2022-10-15T16:00:18.952Z,25.35
2022-10-15T16:02:45.982Z,27.33
2022-10-15T16:05:16.991Z,23.92
2022-10-15T16:07:44.818Z,24.27
2022-10-15T16:10:12.649Z,25.95
2022-10-15T16:12:40.546Z,28.45
2022-10-15T16:15:11.687Z,25.75
2022-10-15T16:17:41.585Z,23.23
2022-10-15T16:20:09.681Z,24.88
2022-10-15T16:22:36.645Z,27.40
2022-10-15T16:25:04.327Z,28.50
2022-10-15T16:27:32.811Z,34.45
2022-10-15T16:29:59.750Z,40.55
2022-10-15T16:32:27.171Z,43.10
2022-10-15T16:34:54.383Z,34.40
2022-10-15T16:37:21.347Z,43.08
2022-10-15T16:39:48.286Z,39.63
2022-10-15T16:42:15.676Z,33.85
2022-10-15T16:44:42.615Z,34.75
2022-10-15T16:47:09.562Z,30.15
2022-10-15T16:49:36.570Z,38.58
2022-10-15T16:52:04.334Z,52.90
2022-10-15T16:54:31.231Z,32.58
2022-10-15T16:56:58.498Z,38.40
2022-10-15T16:59:25.485Z,38.30
2022-10-15T17:01:52.441Z,48.78
2022-10-15T17:04:19.947Z,40.50
2022-10-15T17:06:46.943Z,36.67
2022-10-15T17:09:13.877Z,34.92
2022-10-15T17:11:43.068Z,33.78
2022-10-15T17:14:13.051Z,35.03
2022-10-15T17:16:44.424Z,33.90
2022-10-15T17:19:13.354Z,32.80
2022-10-15T17:21:42.462Z,33.65
2022-10-15T17:24:13.731Z,30.63
2022-10-15T17:26:42.586Z,28.92
2022-10-15T17:29:13.484Z,40.28
2022-10-15T17:31:40.494Z,33.63
2022-10-15T17:34:09.909Z,36.05
2022-10-15T17:36:42.858Z,44.03
2022-10-15T17:39:13.618Z,37.08
2022-10-15T17:41:41.287Z,35.60
2022-10-15T17:44:08.479Z,30.77
2022-10-15T17:46:35.439Z,25.77
2022-10-15T17:49:03.655Z,30.58
2022-10-15T17:51:32.676Z,35.00
2022-10-15T17:54:00.807Z,50.10
2022-10-15T17:56:35.457Z,41.08
2022-10-15T17:59:05.713Z,50.63
2022-10-15T18:04:23.104Z,42.85
2022-10-15T18:06:50.328Z,40.75
2022-10-15T18:09:18.318Z,48.90
2022-10-15T18:11:46.314Z,37.92
2022-10-15T18:14:13.269Z,47.45
2022-10-15T18:16:43.082Z,42.22
2022-10-15T18:19:12.198Z,42.45
2022-10-15T18:21:41.379Z,45.92
2022-10-15T18:24:10.958Z,43.60
2022-10-15T18:26:38.132Z,37.03
2022-10-15T18:29:05.442Z,44.42
2022-10-15T18:31:32.931Z,40.33
2022-10-15T18:33:59.942Z,39.80
2022-10-15T18:36:29.122Z,34.92
2022-10-15T18:38:57.117Z,39.60
2022-10-15T18:41:27.922Z,32.60
2022-10-15T18:44:00.794Z,39.67
2022-10-15T18:46:28.741Z,32.25
2022-10-15T18:48:56.127Z,30.40
2022-10-15T18:51:25.409Z,26.27
2022-10-15T18:53:53.315Z,33.85
2022-10-15T18:56:20.778Z,43.15
2022-10-15T18:58:48.171Z,42.58
2022-10-15T19:01:25.869Z,32.13
2022-10-15T19:03:57.214Z,36.63
2022-10-15T19:06:27.526Z,33.80
2022-10-15T19:09:00.830Z,37.20
2022-10-15T19:11:28.449Z,36.80
2022-10-15T19:13:59.901Z,39.47
2022-10-15T19:16:27.936Z,45.83
2022-10-15T19:18:55.242Z,41.17
2022-10-15T19:21:22.143Z,35.22
2022-10-15T19:23:48.927Z,37.58
2022-10-15T19:26:16.368Z,38.75
2022-10-15T19:28:43.662Z,35.17
2022-10-15T19:31:17.124Z,41.95
2022-10-15T19:33:44.300Z,39.53
2022-10-15T19:36:11.231Z,45.22
2022-10-15T19:38:38.224Z,44.53
2022-10-15T19:41:05.209Z,40.10
2022-10-15T19:43:32.344Z,35.90
2022-10-15T19:46:03.805Z,38.03
2022-10-15T19:48:31.278Z,38.50
2022-10-15T19:51:01.944Z,40.33
2022-10-15T19:53:30.579Z,37.53
2022-10-15T19:56:02.574Z,38.80
2022-10-15T19:58:29.938Z,33.67
2022-10-15T20:00:57.470Z,39.45
2022-10-15T20:03:27.126Z,38.08
2022-10-15T20:05:54.567Z,32.70
2022-10-15T20:08:22.889Z,36.35
2022-10-15T20:10:51.603Z,43.33
2022-10-15T20:13:20.512Z,32.30
2022-10-15T20:15:49.971Z,33.35
2022-10-15T20:18:17.593Z,32.88
2022-10-15T20:20:46.050Z,29.77
2022-10-15T20:23:15.276Z,36.75
2022-10-15T20:25:43.243Z,30.13
2022-10-15T20:28:11.880Z,40.53
2022-10-15T20:30:40.310Z,47.25
2022-10-15T20:33:08.067Z,48.92
2022-10-15T20:35:36.246Z,32.10
2022-10-15T20:38:04.464Z,23.83
2022-10-15T20:40:32.315Z,28.88
2022-10-15T20:42:59.325Z,23.73
2022-10-15T20:45:31.409Z,23.98
2022-10-15T20:47:58.598Z,24.33
2022-10-15T20:50:32.177Z,29.83
2022-10-15T20:52:59.563Z,25.67
2022-10-15T20:55:26.961Z,27.02
2022-10-15T20:57:54.929Z,28.45
2022-10-15T21:00:22.718Z,22.67
2022-10-15T21:02:49.570Z,28.50
2022-10-15T21:05:16.957Z,27.73
2022-10-15T21:07:44.099Z,32.05
2022-10-15T21:10:11.299Z,39.38
2022-10-15T21:12:38.896Z,39.58
2022-10-15T21:15:07.221Z,45.38
2022-10-15T21:17:34.190Z,41.00
2022-10-15T21:20:01.613Z,36.85
2022-10-15T21:22:28.621Z,36.33
2022-10-15T21:24:55.958Z,32.00
2022-10-15T21:27:23.495Z,34.28
2022-10-15T21:29:50.805Z,28.60
2022-10-15T21:32:18.363Z,30.25
2022-10-15T21:34:45.455Z,27.10
2022-10-15T21:37:13.656Z,31.50
2022-10-15T21:39:40.874Z,33.58
2022-10-15T21:42:09.119Z,23.30
2022-10-15T21:44:37.020Z,22.70
2022-10-15T21:47:05.432Z,28.95
2022-10-15T21:49:32.746Z,30.70
2022-10-15T21:51:59.964Z,28.05
2022-10-15T21:54:27.330Z,28.33
2022-10-15T21:56:54.698Z,30.65
2022-10-15T21:59:24.671Z,35.22
2022-10-15T22:01:51.963Z,39.38
2022-10-15T22:04:19.045Z,39.47
2022-10-15T22:06:45.904Z,33.70
2022-10-15T22:09:13.193Z,30.65
2022-10-15T22:11:43.635Z,29.27
2022-10-15T22:14:12.732Z,28.92
2022-10-15T22:16:40.517Z,29.70
2022-10-15T22:19:11.250Z,36.15
2022-10-15T22:21:39.056Z,29.80
2022-10-15T22:24:20.583Z,28.48
2022-10-15T22:26:51.685Z,35.08
2022-10-15T22:29:31.702Z,34.30
2022-10-15T22:32:01.858Z,34.92
2022-10-15T22:34:28.878Z,29.92
2022-10-15T22:36:55.742Z,30.00
2022-10-15T22:39:22.576Z,25.65
2022-10-15T22:41:49.555Z,27.08
2022-10-15T22:44:19.835Z,30.27
2022-10-15T22:46:49.270Z,29.48
2022-10-15T22:49:18.142Z,27.02
2022-10-15T22:51:45.877Z,25.33
2022-10-15T22:54:12.818Z,21.65
2022-10-15T22:56:39.726Z,29.55
2022-10-15T22:59:06.615Z,33.78
2022-10-15T23:01:35.383Z,35.47
2022-10-15T23:04:05.085Z,31.75
2022-10-15T23:06:34.754Z,33.20
2022-10-15T23:09:04.719Z,35.90
2022-10-15T23:11:39.865Z,38.05
2022-10-15T23:14:13.469Z,33.58
2022-10-15T23:16:43.471Z,31.00
2022-10-15T23:19:22.332Z,33.33
2022-10-15T23:21:56.219Z,29.70
2022-10-15T23:24:26.144Z,34.35
2022-10-15T23:27:00.771Z,27.85
2022-10-15T23:29:34.277Z,25.02
2022-10-15T23:32:01.588Z,32.72
2022-10-15T23:34:29.051Z,31.55
2022-10-15T23:36:56.527Z,30.10
2022-10-15T23:39:26.762Z,27.77
2022-10-15T23:41:55.452Z,29.85
2022-10-15T23:44:25.710Z,29.15
2022-10-15T23:46:53.117Z,25.38
2022-10-15T23:49:20.332Z,23.60
2022-10-15T23:51:47.844Z,28.50
2022-10-15T23:54:17.795Z,26.98
2022-10-15T23:56:46.130Z,23.52
2022-10-15T23:59:13.401Z,25.80
